Time;durP1;ratioP1;P1;durP2;ratioP2;P2;SDS_P1;SDS_P2;PMS_P1;PMS_P2;Temp;Humidity;BMP_temperature;BMP_pressure;BME280_temperature;BME280_humidity;BME280_pressure;Samples;Min_cycle;Max_cycle;Signal;HPM_P1;HPM_P2
2021/11/16 00:00:26;;;;;;;2.92;1.47;;;;;;;6.55;40.37;102507.06;1814734;78;22285;-67
2021/11/16 00:02:53;;;;;;;3.85;1.67;;;;;;;6.68;40.07;102504.50;1814844;78;21464;-68
2021/11/16 00:05:20;;;;;;;3.90;1.90;;;;;;;6.84;39.76;102505.13;1811271;78;21055;-70
2021/11/16 00:07:48;;;;;;;5.50;1.92;;;;;;;6.68;40.12;102500.14;1808974;79;21112;-69
2021/11/16 00:10:15;;;;;;;3.60;1.55;;;;;;;6.71;40.07;102503.01;1811591;78;21612;-68
2021/11/16 00:12:43;;;;;;;5.45;2.00;;;;;;;6.77;40.03;102508.59;1810806;78;20955;-67
2021/11/16 00:15:10;;;;;;;3.58;1.95;;;;;;;6.51;40.42;102512.91;1810790;78;20952;-67
2021/11/16 00:17:37;;;;;;;4.20;1.85;;;;;;;6.62;40.51;102522.57;1809362;79;21005;-68
2021/11/16 00:20:07;;;;;;;4.90;1.75;;;;;;;6.29;40.71;102518.69;1810043;78;21120;-68
2021/11/16 00:22:35;;;;;;;3.98;1.60;;;;;;;6.46;40.45;102521.45;1806160;78;20967;-67
2021/11/16 00:27:33;;;;;;;;;;;;;;;6.04;41.05;102514.70;1807920;78;20991;-69
2021/11/16 00:30:01;;;;;;;3.95;2.20;;;;;;;6.04;41.02;102514.23;1805475;78;20173;-68
2021/11/16 00:32:28;;;;;;;5.28;2.37;;;;;;;6.04;40.94;102515.53;1803893;79;21132;-68
2021/11/16 00:34:55;;;;;;;4.28;2.33;;;;;;;6.06;41.00;102521.46;1805410;79;20912;-68
2021/11/16 00:37:26;;;;;;;5.37;2.20;;;;;;;6.12;40.91;102518.10;1803122;78;21050;-70
2021/11/16 00:39:58;;;;;;;5.30;2.55;;;;;;;6.16;40.88;102506.62;1805238;78;20900;-69
2021/11/16 00:42:25;;;;;;;6.30;2.72;;;;;;;6.07;41.10;102501.11;1805292;79;21045;-68
2021/11/16 00:44:54;;;;;;;6.20;2.80;;;;;;;6.05;41.26;102510.72;1806102;78;20912;-70
2021/11/16 00:47:22;;;;;;;6.87;2.92;;;;;;;6.27;41.07;102515.82;1803107;78;21039;-69
2021/11/16 00:49:50;;;;;;;8.08;3.47;;;;;;;6.20;41.02;102515.84;1804751;78;20969;-68
2021/11/16 00:52:19;;;;;;;7.67;3.45;;;;;;;6.16;41.00;102506.62;1802667;79;22037;-68
2021/11/16 00:54:46;;;;;;;5.75;2.33;;;;;;;6.08;41.09;102496.75;1805626;78;20892;-67
2021/11/16 00:57:13;;;;;;;6.42;2.52;;;;;;;6.11;41.17;102495.73;1802518;79;21080;-68
2021/11/16 00:59:41;;;;;;;6.05;2.45;;;;;;;6.07;41.22;102495.92;1804402;79;21053;-70
2021/11/16 01:02:09;;;;;;;6.95;2.95;;;;;;;6.10;41.13;102501.38;1803002;79;20943;-68
2021/11/16 01:04:40;;;;;;;4.75;2.12;;;;;;;6.06;41.13;102499.45;1803940;77;20923;-68
2021/11/16 01:07:08;;;;;;;6.05;2.87;;;;;;;6.06;41.09;102493.42;1803576;78;20993;-69
2021/11/16 01:09:36;;;;;;;5.10;2.17;;;;;;;6.07;41.08;102493.34;1803846;78;21132;-72
2021/11/16 01:12:04;;;;;;;5.72;2.90;;;;;;;6.13;40.99;102489.98;1804741;78;20852;-68
2021/11/16 01:14:32;;;;;;;5.42;2.02;;;;;;;6.19;40.89;102490.89;1801662;79;21089;-68
2021/11/16 01:17:00;;;;;;;4.90;2.10;;;;;;;6.25;40.71;102498.23;1803488;79;20954;-68
2021/11/16 01:19:28;;;;;;;4.00;1.80;;;;;;;6.24;40.57;102500.47;1803621;78;21025;-69
2021/11/16 01:21:55;;;;;;;7.20;2.25;;;;;;;6.00;40.88;102499.83;1803579;79;22084;-69
2021/11/16 01:24:22;;;;;;;4.72;2.27;;;;;;;5.99;40.82;102498.19;1800374;79;21647;-68
2021/11/16 01:26:50;;;;;;;6.22;2.95;;;;;;;5.89;40.84;102505.30;1806598;79;20904;-68
2021/11/16 01:29:19;;;;;;;9.83;4.20;;;;;;;5.72;41.08;102503.75;1807252;78;20903;-68
2021/11/16 01:31:47;;;;;;;12.58;6.17;;;;;;;5.59;41.20;102510.17;1802767;78;21030;-69
2021/11/16 01:34:15;;;;;;;14.13;7.10;;;;;;;5.42;40.88;102513.81;1803007;79;21134;-69
2021/11/16 01:36:42;;;;;;;12.33;6.20;;;;;;;5.42;40.83;102507.34;1806537;79;21035;-68
2021/11/16 01:39:10;;;;;;;14.58;7.33;;;;;;;5.41;40.78;102504.83;1810293;78;21449;-69
2021/11/16 01:41:37;;;;;;;13.48;6.50;;;;;;;5.44;40.84;102511.12;1810374;78;22233;-69
2021/11/16 01:44:04;;;;;;;12.88;5.95;;;;;;;5.33;41.19;102508.71;1808510;79;21390;-69
2021/11/16 01:46:32;;;;;;;8.50;3.70;;;;;;;5.33;41.23;102513.89;1809964;79;21068;-69
2021/11/16 01:49:00;;;;;;;7.92;4.17;;;;;;;5.27;41.38;102512.16;1811124;78;21012;-68
2021/11/16 01:51:28;;;;;;;6.03;3.35;;;;;;;5.02;41.79;102517.48;1809352;78;20896;-68
2021/11/16 01:54:01;;;;;;;7.80;3.62;;;;;;;5.00;42.39;102516.77;1811690;78;21031;-68
2021/11/16 01:56:33;;;;;;;8.98;3.60;;;;;;;5.10;42.39;102509.28;1771725;80;21057;-68
2021/11/16 01:59:01;;;;;;;7.92;3.52;;;;;;;5.49;42.18;102512.52;1773107;80;21137;-68
2021/11/16 02:01:29;;;;;;;8.73;3.55;;;;;;;5.74;41.52;102516.15;1771040;79;21133;-68
2021/11/16 02:03:56;;;;;;;7.80;3.50;;;;;;;5.77;41.37;102514.67;1773232;80;21019;-69
2021/11/16 02:06:27;;;;;;;10.45;3.83;;;;;;;5.74;41.34;102510.51;1773209;80;21061;-69
2021/11/16 02:08:56;;;;;;;6.97;3.50;;;;;;;5.77;41.25;102509.02;1773471;80;20951;-69
2021/11/16 02:11:23;;;;;;;6.42;3.30;;;;;;;5.72;41.35;102507.20;1773712;80;22018;-69
2021/11/16 02:13:50;;;;;;;7.55;3.95;;;;;;;5.93;41.09;102499.86;1773419;80;21496;-70
2021/11/16 02:16:17;;;;;;;7.90;3.90;;;;;;;5.97;40.91;102501.31;1772863;80;21463;-67
2021/11/16 02:18:44;;;;;;;7.55;3.70;;;;;;;6.02;40.72;102508.34;1773579;80;21094;-68
2021/11/16 02:21:11;;;;;;;7.30;3.67;;;;;;;5.99;40.77;102513.72;1769837;80;21764;-68
2021/11/16 02:23:39;;;;;;;6.33;3.02;;;;;;;6.00;40.68;102502.42;1771967;80;21150;-68
2021/11/16 02:26:07;;;;;;;5.92;2.98;;;;;;;5.96;40.67;102504.02;1772440;80;20930;-68
2021/11/16 02:28:35;;;;;;;8.23;4.12;;;;;;;5.71;41.13;102508.11;1770090;80;21125;-68
2021/11/16 02:31:04;;;;;;;7.97;3.52;;;;;;;5.72;41.23;102512.38;1768911;80;21010;-68
2021/11/16 02:33:32;;;;;;;7.62;3.67;;;;;;;5.60;41.48;102495.83;1769469;80;20978;-68
2021/11/16 02:35:59;;;;;;;10.95;4.35;;;;;;;5.66;41.69;102493.34;1767605;80;21148;-67
2021/11/16 02:38:26;;;;;;;10.88;4.37;;;;;;;5.88;41.33;102497.17;1766616;80;21022;-69
2021/11/16 02:40:53;;;;;;;9.48;4.15;;;;;;;6.01;41.17;102498.07;1767479;80;21003;-69
2021/11/16 02:43:21;;;;;;;10.20;3.20;;;;;;;5.21;42.24;102498.30;1764176;79;21456;-68
2021/11/16 02:45:49;;;;;;;6.95;2.70;;;;;;;5.01;42.80;102508.08;1766385;80;20982;-69
2021/11/16 02:48:16;;;;;;;6.35;2.47;;;;;;;5.15;42.84;102499.95;1766020;79;21144;-68
2021/11/16 02:50:48;;;;;;;7.47;2.47;;;;;;;5.55;42.12;102488.83;1766090;79;21113;-70
2021/11/16 02:53:15;;;;;;;5.78;2.35;;;;;;;5.64;42.03;102499.06;1764596;80;21612;-69
2021/11/16 02:55:43;;;;;;;6.12;2.20;;;;;;;5.89;41.78;102510.48;1762515;80;21023;-68
2021/11/16 02:58:10;;;;;;;4.42;1.72;;;;;;;6.14;41.10;102511.05;1766088;80;21372;-68
2021/11/16 03:00:39;;;;;;;4.40;1.67;;;;;;;6.30;40.80;102500.91;1768845;80;21127;-69
2021/11/16 03:03:06;;;;;;;4.47;1.52;;;;;;;6.53;40.40;102495.52;1768260;80;21015;-67
2021/11/16 03:05:35;;;;;;;5.42;1.98;;;;;;;6.57;40.22;102491.78;1768668;80;21043;-68
2021/11/16 03:08:23;;;;;;;4.33;1.65;;;;;;;6.42;40.48;102499.27;1766035;80;21034;-70
2021/11/16 03:10:54;;;;;;;5.10;2.37;;;;;;;6.57;40.21;102504.74;1766005;80;21075;-67
2021/11/16 03:13:21;;;;;;;5.80;1.60;;;;;;;6.56;40.21;102494.48;1759017;80;21125;-67
2021/11/16 03:15:48;;;;;;;3.90;1.55;;;;;;;6.15;40.19;102490.72;1770434;80;21741;-68
2021/11/16 03:18:16;;;;;;;3.50;1.80;;;;;;;6.11;40.65;102497.03;1773193;80;21039;-67
2021/11/16 03:20:44;;;;;;;5.45;2.35;;;;;;;6.00;40.93;102503.72;1773623;80;21003;-67
2021/11/16 03:23:20;;;;;;;4.62;2.27;;;;;;;5.97;41.07;102503.91;1769642;80;21039;-67
2021/11/16 03:25:55;;;;;;;5.97;2.35;;;;;;;5.91;41.12;102509.46;1768411;80;21406;-68
2021/11/16 03:28:17;;;;;;;5.33;2.70;;;;;;;5.52;41.78;102512.77;1769283;80;21080;-67
2021/11/16 03:30:47;;;;;;;5.45;2.45;;;;;;;5.35;42.17;102509.93;1773410;80;21058;-67
2021/11/16 03:33:14;;;;;;;6.10;2.12;;;;;;;5.71;41.67;102514.57;1773489;80;20899;-69
2021/11/16 03:35:42;;;;;;;6.37;2.35;;;;;;;5.66;41.51;102524.39;1769773;80;21002;-68
2021/11/16 03:38:09;;;;;;;4.70;2.65;;;;;;;5.30;41.88;102522.28;1768526;80;21148;-69
2021/11/16 03:40:38;;;;;;;5.58;2.40;;;;;;;5.35;42.11;102524.16;1769390;80;20958;-68
2021/11/16 03:43:05;;;;;;;6.40;2.98;;;;;;;5.29;42.15;102521.93;1768582;80;21109;-69
2021/11/16 03:45:32;;;;;;;6.62;2.35;;;;;;;5.10;42.30;102532.08;1766398;80;20959;-70
2021/11/16 03:48:00;;;;;;;7.03;2.33;;;;;;;5.06;42.40;102533.19;1765366;80;21466;-69
2021/11/16 03:50:28;;;;;;;6.83;2.72;;;;;;;5.07;42.29;102523.67;1768612;80;21136;-67
2021/11/16 03:52:57;;;;;;;4.55;1.80;;;;;;;5.07;42.40;102515.45;1769348;80;20983;-67
2021/11/16 03:55:31;;;;;;;4.42;2.00;;;;;;;5.07;42.51;102507.70;1766429;80;21586;-71
2021/11/16 03:57:58;;;;;;;4.33;1.90;;;;;;;5.00;42.45;102501.69;1744106;81;21591;-69
2021/11/16 04:00:30;;;;;;;4.55;1.87;;;;;;;5.42;42.25;102503.89;1750922;79;22111;-69
2021/11/16 04:02:58;;;;;;;6.78;2.02;;;;;;;5.51;42.11;102516.28;1744934;80;21127;-70
2021/11/16 04:05:25;;;;;;;5.05;1.80;;;;;;;5.70;41.67;102519.86;1746595;80;21508;-70
2021/11/16 04:07:54;;;;;;;5.78;2.22;;;;;;;5.71;41.49;102515.86;1746853;81;21474;-70
2021/11/16 04:10:22;;;;;;;5.58;2.33;;;;;;;5.56;41.64;102523.28;1744807;80;21010;-69
2021/11/16 04:12:50;;;;;;;4.75;2.35;;;;;;;5.60;41.61;102538.52;1746914;81;21082;-68
2021/11/16 04:15:21;;;;;;;5.40;2.00;;;;;;;5.55;41.64;102543.16;1744867;80;21134;-69
2021/11/16 04:17:47;;;;;;;4.33;1.65;;;;;;;5.45;41.72;102534.29;1747103;80;21054;-69
2021/11/16 04:20:17;;;;;;;4.20;1.72;;;;;;;5.46;41.60;102526.09;1744561;80;21552;-68
2021/11/16 04:22:45;;;;;;;5.87;1.72;;;;;;;5.25;41.99;102533.38;1747077;81;21007;-68
2021/11/16 04:25:12;;;;;;;6.20;1.80;;;;;;;5.37;41.93;102541.69;1745225;80;21070;-69
2021/11/16 04:27:40;;;;;;;4.42;2.08;;;;;;;5.36;41.93;102543.91;1741898;80;21155;-68
2021/11/16 04:30:09;;;;;;;4.12;1.98;;;;;;;5.28;42.00;102548.72;1746767;80;21086;-69
2021/11/16 04:32:37;;;;;;;4.30;1.77;;;;;;;5.13;42.22;102561.63;1746536;81;21016;-68
2021/11/16 04:35:05;;;;;;;11.33;3.92;;;;;;;5.30;41.95;102560.64;1747440;80;21014;-69
2021/11/16 04:37:32;;;;;;;11.95;5.45;;;;;;;5.24;41.88;102563.59;1739707;80;21104;-71
2021/11/16 04:39:59;;;;;;;5.85;2.40;;;;;;;5.13;41.65;102565.51;1745175;80;21225;-64
2021/11/16 04:42:27;;;;;;;6.85;2.08;;;;;;;5.12;41.79;102561.27;1746280;80;20904;-68
2021/11/16 04:44:55;;;;;;;5.97;2.58;;;;;;;5.14;41.85;102550.83;1746905;80;21608;-68
2021/11/16 04:47:32;;;;;;;9.58;2.50;;;;;;;5.20;41.63;102553.06;1742089;80;21004;-70
2021/11/16 04:50:04;;;;;;;6.58;3.25;;;;;;;5.29;41.73;102557.67;1742262;80;22575;-69
2021/11/16 04:52:32;;;;;;;8.95;4.42;;;;;;;5.38;41.93;102553.72;1740945;80;21858;-67
2021/11/16 05:02:55;;;;;;;6.50;3.30;;;;;;;5.77;41.95;102576.78;1761313;80;21465;-69
2021/11/16 05:05:22;;;;;;;6.25;2.95;;;;;;;6.27;41.71;102572.33;1747501;81;22668;-68
2021/11/16 05:08:01;;;;;;;6.12;2.67;;;;;;;6.69;41.34;102566.59;1748035;81;20928;-65
2021/11/16 05:10:28;;;;;;;7.80;3.85;;;;;;;7.10;41.21;102568.67;1746307;81;20909;-71
2021/11/16 05:12:56;;;;;;;13.85;5.10;;;;;;;7.65;40.54;102568.76;1746657;81;21103;-68
2021/11/16 05:15:24;;;;;;;13.15;6.33;;;;;;;7.84;39.71;102558.77;1746085;81;22433;-65
2021/11/16 05:17:51;;;;;;;11.45;5.20;;;;;;;8.14;39.63;102561.39;1746643;81;21806;-66
2021/11/16 05:20:19;;;;;;;10.10;5.42;;;;;;;8.64;39.38;102567.33;1747732;81;21497;-70
2021/11/16 05:22:51;;;;;;;25.35;14.87;;;;;;;9.26;38.85;102572.16;1746875;81;21487;-67
2021/11/16 05:25:21;;;;;;;15.70;8.03;;;;;;;9.90;37.94;102560.62;1747386;81;21135;-68
2021/11/16 05:27:48;;;;;;;13.60;7.92;;;;;;;10.55;36.84;102556.27;1745268;81;21036;-68
2021/11/16 05:30:17;;;;;;;16.67;9.30;;;;;;;11.00;36.11;102569.53;1746569;80;21153;-65
2021/11/16 05:32:44;;;;;;;14.53;8.53;;;;;;;11.62;35.38;102562.84;1745875;81;21029;-68
2021/11/16 05:35:12;;;;;;;16.05;9.45;;;;;;;11.86;34.68;102559.92;1748210;81;21519;-66
2021/11/16 05:37:40;;;;;;;14.33;8.58;;;;;;;12.39;34.00;102562.64;1746398;81;21025;-66
2021/11/16 05:40:09;;;;;;;18.70;11.00;;;;;;;12.77;33.37;102569.63;1745534;81;20893;-66
2021/11/16 05:42:36;;;;;;;15.28;9.25;;;;;;;13.33;32.81;102564.88;1744487;81;21159;-67
2021/11/16 05:45:04;;;;;;;14.90;8.35;;;;;;;13.51;32.40;102566.70;1743359;81;21011;-66
2021/11/16 05:47:32;;;;;;;11.70;7.47;;;;;;;14.11;31.47;102567.02;1743024;81;21023;-66
2021/11/16 05:50:00;;;;;;;15.65;7.90;;;;;;;13.86;31.42;102570.73;1743895;81;21602;-66
2021/11/16 05:52:27;;;;;;;13.23;8.03;;;;;;;14.11;30.96;102571.77;1742844;81;21502;-67
2021/11/16 05:54:54;;;;;;;11.73;6.47;;;;;;;14.58;30.48;102564.16;1743899;81;22113;-69
2021/11/16 05:57:21;;;;;;;10.77;6.77;;;;;;;14.99;29.91;102567.88;1742936;81;22090;-68
2021/11/16 05:59:50;;;;;;;11.40;6.83;;;;;;;14.63;30.04;102576.35;1744342;81;21822;-67
2021/11/16 06:02:17;;;;;;;10.13;5.03;;;;;;;15.21;29.47;102582.28;1743957;81;21362;-70
2021/11/16 06:04:44;;;;;;;9.97;5.80;;;;;;;15.63;28.66;102570.95;1746057;81;21267;-67
2021/11/16 06:07:13;;;;;;;10.47;5.40;;;;;;;15.73;27.89;102566.92;1744036;81;21276;-69
2021/11/16 06:09:42;;;;;;;11.77;5.70;;;;;;;15.80;27.77;102574.50;1747777;81;21341;-67
2021/11/16 06:12:11;;;;;;;9.17;5.17;;;;;;;15.89;27.33;102579.28;1744626;81;21209;-67
2021/11/16 06:14:38;;;;;;;7.43;3.93;;;;;;;15.74;27.36;102583.84;1742221;81;21402;-65
2021/11/16 06:17:06;;;;;;;7.90;4.13;;;;;;;15.54;27.59;102587.70;1745585;81;21318;-70
2021/11/16 06:19:35;;;;;;;4.87;2.60;;;;;;;15.47;27.55;102615.59;1744521;81;22007;-66
2021/11/16 06:22:04;;;;;;;7.40;3.70;;;;;;;15.28;27.34;102585.94;1745060;81;21659;-66
2021/11/16 06:24:32;;;;;;;9.50;5.87;;;;;;;15.85;26.56;102576.15;1742483;81;21831;-67
2021/11/16 06:27:00;;;;;;;5.33;3.00;;;;;;;15.85;26.56;102576.15;1745152;81;21389;-66
2021/11/16 06:29:27;;;;;;;5.57;3.10;;;;;;;15.78;26.91;102561.99;1742420;81;21719;-67
2021/11/16 06:31:55;;;;;;;4.83;2.70;;;;;;;15.74;26.86;102572.01;1744645;81;22238;-67
2021/11/16 06:34:23;;;;;;;4.93;2.83;;;;;;;15.78;26.68;102578.59;1741359;81;21684;-67
2021/11/16 06:36:50;;;;;;;7.10;2.90;;;;;;;15.95;26.55;102576.02;1744538;81;21760;-67
2021/11/16 06:39:19;;;;;;;6.77;4.10;;;;;;;16.05;26.35;102569.59;1742409;81;21733;-67
2021/11/16 06:41:46;;;;;;;7.67;5.13;;;;;;;16.22;26.06;102565.19;1744354;81;21710;-68
2021/11/16 06:44:14;;;;;;;4.73;2.80;;;;;;;16.12;26.11;102577.67;1742767;81;21698;-67
2021/11/16 06:46:42;;;;;;;6.53;2.97;;;;;;;16.02;26.07;102576.98;1741404;81;21517;-66
2021/11/16 06:49:09;;;;;;;7.47;3.50;;;;;;;15.85;26.32;102574.83;1743613;81;22186;-67
2021/11/16 06:51:38;;;;;;;6.33;3.13;;;;;;;15.70;26.15;102568.05;1743372;81;21658;-66
2021/11/16 06:54:12;;;;;;;6.20;3.03;;;;;;;15.70;26.15;102568.05;1743480;81;21470;-71
2021/11/16 06:56:40;;;;;;;7.83;3.30;;;;;;;15.47;26.33;102573.05;1743525;81;23275;-67
2021/11/16 06:59:07;;;;;;;8.47;3.60;;;;;;;15.69;26.26;102572.98;1743282;81;21675;-67
2021/11/16 07:01:37;;;;;;;7.10;3.50;;;;;;;15.80;26.01;102575.32;1745423;80;21623;-67
2021/11/16 07:04:09;;;;;;;13.07;6.00;;;;;;;15.80;26.01;102575.32;1760128;80;21435;-73
2021/11/16 07:06:36;;;;;;;12.13;6.00;;;;;;;15.65;26.15;102574.30;1759976;80;21774;-66
2021/11/16 07:09:03;;;;;;;15.63;7.70;;;;;;;15.64;26.26;102568.65;1778055;80;21102;-67
2021/11/16 07:11:33;;;;;;;18.40;8.10;;;;;;;15.37;26.94;102572.33;1777555;80;21465;-67
2021/11/16 07:14:06;;;;;;;17.73;8.80;;;;;;;15.37;26.94;102572.33;1741917;80;22235;-67
2021/11/16 07:16:41;;;;;;;17.77;8.80;;;;;;;15.32;27.02;102568.87;1777373;80;22097;-65
2021/11/16 07:19:09;;;;;;;14.57;7.93;;;;;;;15.60;26.78;102563.88;1777627;80;21236;-69
2021/11/16 07:21:49;;;;;;;12.30;6.30;;;;;;;15.70;26.71;102564.11;1773803;80;22110;-76
2021/11/16 07:24:20;;;;;;;10.13;6.07;;;;;;;15.47;26.63;102554.64;1775538;80;21333;-67
2021/11/16 07:27:04;;;;;;;10.45;4.42;;;;;;;14.28;27.74;102569.29;1776807;80;21974;-76
2021/11/16 07:29:43;;;;;;;10.17;4.47;;;;;;;14.76;27.43;102570.20;1774150;80;21484;-66
2021/11/16 07:32:18;;;;;;;6.57;3.70;;;;;;;14.71;27.45;102565.91;1774363;80;21252;-64
2021/11/16 07:34:45;;;;;;;9.20;4.60;;;;;;;14.79;27.68;102559.39;1775559;80;21261;-67
2021/11/16 07:37:19;;;;;;;8.80;4.70;;;;;;;14.79;27.68;102559.39;1776012;80;21430;-66
2021/11/16 07:39:55;;;;;;;10.87;4.37;;;;;;;14.88;27.61;102558.95;1780979;80;21267;-65
2021/11/16 07:42:25;;;;;;;8.23;4.50;;;;;;;14.89;27.71;102562.39;1783243;80;21333;-68
2021/11/16 07:45:11;;;;;;;10.40;3.67;;;;;;;14.69;28.06;102560.47;1778498;80;21288;-67
2021/11/16 07:47:50;;;;;;;7.10;3.37;;;;;;;14.68;28.39;102566.20;1779035;80;21221;-68
2021/11/16 07:50:38;;;;;;;6.63;3.97;;;;;;;14.81;28.12;102566.64;1781766;80;21312;-75
2021/11/16 07:53:22;;;;;;;6.80;3.70;;;;;;;14.97;28.02;102562.47;1783099;80;21735;-69
2021/11/16 07:56:06;;;;;;;6.23;2.90;;;;;;;14.96;28.05;102556.86;1782939;80;21211;-74
2021/11/16 07:58:41;;;;;;;5.43;3.20;;;;;;;14.96;28.05;102556.86;1783160;80;21430;-68
2021/11/16 08:01:22;;;;;;;5.50;2.73;;;;;;;15.31;27.73;102552.78;1775651;80;21234;-67
2021/11/16 08:03:50;;;;;;;5.60;3.27;;;;;;;15.27;27.39;102550.14;1779017;79;21333;-68
2021/11/16 08:06:31;;;;;;;7.90;3.70;;;;;;;15.00;27.87;102550.31;1781209;79;21352;-70
2021/11/16 08:11:30;;;;;;;5.13;2.90;;;;;;;15.21;27.94;102544.19;1783979;78;21817;-71
2021/11/16 08:14:11;;;;;;;5.97;2.77;;;;;;;15.07;27.74;102538.20;1777735;79;22457;-69
2021/11/16 08:16:55;;;;;;;7.97;3.80;;;;;;;14.94;27.98;102539.13;1749288;80;21688;-72
2021/11/16 08:19:31;;;;;;;6.93;3.23;;;;;;;15.06;27.96;102533.94;1745125;81;21890;-66
2021/11/16 08:22:09;;;;;;;7.47;3.47;;;;;;;15.06;27.99;102528.19;1780353;79;21304;-69
2021/11/16 08:24:39;;;;;;;6.53;2.80;;;;;;;15.38;27.92;102530.64;1778923;80;21777;-73
2021/11/16 08:27:17;;;;;;;8.13;2.60;;;;;;;15.53;27.66;102520.31;1784411;80;21256;-69
2021/11/16 08:29:47;;;;;;;5.77;2.70;;;;;;;15.52;27.46;102522.12;1783392;80;21665;-66
2021/11/16 08:32:20;;;;;;;6.43;3.00;;;;;;;15.37;27.52;102521.58;1782891;80;21679;-75
2021/11/16 08:34:55;;;;;;;8.27;2.60;;;;;;;15.16;27.91;102518.89;1753431;80;21600;-69
2021/11/16 08:37:31;;;;;;;7.33;2.73;;;;;;;15.35;27.81;102509.93;1778994;80;22673;-67
2021/11/16 08:39:59;;;;;;;7.97;3.53;;;;;;;15.26;27.93;102507.74;1777692;79;21774;-69
2021/11/16 08:42:29;;;;;;;8.03;3.50;;;;;;;15.39;27.96;102507.31;1779756;79;21857;-69
2021/11/16 08:45:17;;;;;;;5.63;2.80;;;;;;;15.50;27.85;102508.83;1782897;80;21282;-70
2021/11/16 08:47:47;;;;;;;4.90;2.40;;;;;;;15.20;28.05;102507.58;1783510;79;21282;-69
2021/11/16 08:50:22;;;;;;;6.90;3.20;;;;;;;15.10;27.99;102503.75;1779974;80;21292;-69
2021/11/16 08:52:50;;;;;;;4.83;2.23;;;;;;;15.04;28.20;102505.71;1783785;80;21803;-67
2021/11/16 08:55:22;;;;;;;5.97;2.80;;;;;;;14.96;28.17;102506.46;1781048;80;21038;-67
2021/11/16 08:57:51;;;;;;;6.80;3.00;;;;;;;15.27;27.98;102501.53;1783393;79;21767;-72
2021/11/16 09:00:26;;;;;;;5.33;2.75;;;;;;;15.25;28.16;102487.71;1781373;80;21256;-68
2021/11/16 09:03:14;;;;;;;5.50;2.50;;;;;;;15.56;27.88;102491.08;1778220;80;20978;-67
2021/11/16 09:05:45;;;;;;;5.10;2.33;;;;;;;15.89;27.54;102490.67;1768464;81;21219;-69
2021/11/16 09:08:16;;;;;;;5.10;2.15;;;;;;;16.08;27.15;102482.13;1767427;80;20993;-67
2021/11/16 09:10:44;;;;;;;4.17;1.20;;;;;;;15.95;26.98;102472.11;1762838;81;21016;-67
2021/11/16 09:13:13;;;;;;;3.07;1.30;;;;;;;15.58;26.92;102479.92;1764964;81;21605;-73
2021/11/16 09:15:53;;;;;;;3.07;1.50;;;;;;;15.42;26.84;102480.72;1768942;81;21222;-68
2021/11/16 09:18:29;;;;;;;4.10;1.60;;;;;;;15.28;27.06;102470.81;1765667;81;22656;-68
2021/11/16 09:21:18;;;;;;;3.63;1.60;;;;;;;15.15;27.21;102469.94;1765648;81;21289;-72
2021/11/16 09:23:51;;;;;;;4.12;1.70;;;;;;;15.11;27.61;102466.48;1764120;81;21300;-67
2021/11/16 09:28:52;;;;;;;4.10;1.82;;;;;;;15.20;27.41;102458.48;1768845;81;21514;-69
2021/11/16 09:31:40;;;;;;;3.08;1.77;;;;;;;15.13;27.43;102457.47;1765558;81;21790;-67
2021/11/16 09:34:19;;;;;;;3.02;1.50;;;;;;;15.07;27.42;102460.72;1765186;81;20927;-67
2021/11/16 09:36:59;;;;;;;4.95;1.30;;;;;;;15.24;27.55;102458.48;1763637;81;21559;-69
2021/11/16 09:39:39;;;;;;;2.92;1.30;;;;;;;15.68;27.07;102445.14;1763817;79;21053;-70
2021/11/16 09:42:09;;;;;;;3.25;1.80;;;;;;;15.65;26.95;102441.52;1764479;81;20934;-68
2021/11/16 09:44:44;;;;;;;3.30;1.60;;;;;;;15.79;26.93;102438.22;1766677;81;21069;-68
2021/11/16 09:47:17;;;;;;;4.17;1.80;;;;;;;16.01;26.96;102439.38;1738873;81;21579;-67
2021/11/16 09:49:47;;;;;;;3.87;1.77;;;;;;;16.59;26.76;102440.09;1762090;81;21767;-76
2021/11/16 09:52:21;;;;;;;5.73;1.87;;;;;;;17.04;25.91;102428.09;1764845;81;21341;-70
2021/11/16 09:54:57;;;;;;;2.83;1.70;;;;;;;16.66;25.75;102431.02;1764430;81;21132;-66
2021/11/16 09:57:31;;;;;;;2.90;1.50;;;;;;;16.60;25.64;102429.08;1763348;81;21230;-73
2021/11/16 10:00:28;;;;;;;4.47;1.93;;;;;;;16.40;25.95;102423.36;1763721;81;21301;-67
2021/11/16 10:03:13;;;;;;;2.40;1.20;;;;;;;16.55;26.29;102430.89;1765169;80;21345;-68
2021/11/16 10:05:48;;;;;;;2.53;1.40;;;;;;;16.84;25.83;102417.66;1749776;80;21209;-68
2021/11/16 10:08:17;;;;;;;2.60;1.30;;;;;;;16.94;25.37;102420.91;1764849;80;21824;-67
2021/11/16 10:10:49;;;;;;;3.87;1.73;;;;;;;16.74;25.32;102406.00;1767419;80;21816;-68
2021/11/16 10:13:18;;;;;;;6.53;1.80;;;;;;;16.39;25.46;102402.80;1765785;80;21176;-69
2021/11/16 10:15:51;;;;;;;3.03;1.40;;;;;;;15.96;25.93;102404.05;1768307;80;22122;-66
2021/11/16 10:18:19;;;;;;;3.03;1.70;;;;;;;15.78;26.17;102411.60;1766008;80;21013;-67
2021/11/16 10:20:47;;;;;;;2.53;1.30;;;;;;;15.77;26.15;102394.19;1767462;80;21740;-67
2021/11/16 10:23:18;;;;;;;3.63;1.40;;;;;;;15.75;26.08;102388.26;1765851;80;21192;-67
2021/11/16 10:25:54;;;;;;;2.30;1.30;;;;;;;15.96;25.95;102386.95;1765662;80;21184;-65
2021/11/16 10:28:21;;;;;;;3.37;1.40;;;;;;;15.78;26.05;102377.91;1762931;80;20931;-72
2021/11/16 10:30:49;;;;;;;3.10;1.77;;;;;;;15.71;26.05;102380.38;1767511;80;21889;-65
2021/11/16 10:33:22;;;;;;;2.47;1.10;;;;;;;15.72;26.12;102378.09;1764894;80;21264;-66
2021/11/16 10:35:55;;;;;;;3.03;1.50;;;;;;;15.88;26.03;102368.55;1767484;80;21191;-66
2021/11/16 10:38:33;;;;;;;4.17;1.80;;;;;;;15.92;25.93;102364.10;1759141;80;21097;-65
2021/11/16 10:41:04;;;;;;;3.40;1.75;;;;;;;16.07;25.77;102373.45;1732892;82;21226;-65
2021/11/16 10:43:41;;;;;;;8.25;2.85;;;;;;;16.21;26.23;102370.14;1734014;82;20960;-65
2021/11/16 10:46:08;;;;;;;3.23;1.80;;;;;;;16.62;25.86;102354.67;1734329;80;21036;-67
2021/11/16 10:48:38;;;;;;;3.57;2.00;;;;;;;16.47;25.77;102351.44;1719589;81;21275;-66
2021/11/16 10:51:08;;;;;;;4.17;2.27;;;;;;;16.71;25.26;102353.66;1734751;82;21193;-68
2021/11/16 10:53:35;;;;;;;3.97;1.90;;;;;;;16.89;25.15;102338.92;1735326;80;21226;-69
2021/11/16 10:56:08;;;;;;;5.07;2.60;;;;;;;16.77;25.09;102342.45;1734365;82;21339;-75
2021/11/16 10:58:39;;;;;;;3.73;1.93;;;;;;;16.65;25.32;102340.67;1735195;82;21700;-67
2021/11/16 11:01:11;;;;;;;4.50;2.40;;;;;;;16.61;25.45;102332.80;1734454;82;21347;-68
2021/11/16 11:03:43;;;;;;;4.73;2.63;;;;;;;16.24;25.54;102333.44;1723079;82;21232;-68
2021/11/16 11:06:22;;;;;;;4.47;2.17;;;;;;;15.99;25.99;102329.56;1712701;83;21788;-70
2021/11/16 11:08:57;;;;;;;4.35;2.35;;;;;;;16.12;25.66;102321.64;1710830;83;21169;-68
2021/11/16 11:11:36;;;;;;;4.72;2.40;;;;;;;15.91;25.95;102323.02;1713409;83;21022;-72
2021/11/16 11:14:09;;;;;;;4.30;2.23;;;;;;;15.65;26.15;102323.67;1714149;83;21173;-70
2021/11/16 11:16:56;;;;;;;4.90;2.22;;;;;;;15.74;26.20;102318.26;1712173;83;21276;-66
2021/11/16 11:19:36;;;;;;;4.60;2.95;;;;;;;15.88;26.21;102314.63;1712577;83;21037;-73
2021/11/16 11:27:53;;;;;;;4.43;2.50;;;;;;;15.68;26.45;102306.27;1713573;83;21142;-68
2021/11/16 11:30:17;;;;;;;4.62;2.60;;;;;;;15.73;26.44;102302.66;1709382;83;21596;-68
2021/11/16 11:32:48;;;;;;;5.53;2.80;;;;;;;15.77;26.33;102304.78;1708101;83;21005;-70
2021/11/16 11:35:17;;;;;;;4.93;2.90;;;;;;;15.68;26.41;102301.00;1711192;83;21164;-69
2021/11/16 11:37:57;;;;;;;5.00;2.92;;;;;;;15.58;26.49;102299.36;1710856;83;21233;-69
2021/11/16 11:40:32;;;;;;;5.40;2.97;;;;;;;15.71;26.78;102298.86;1710975;83;22272;-66
2021/11/16 11:43:05;;;;;;;5.70;3.27;;;;;;;15.89;26.34;102282.08;1713389;83;21212;-68
2021/11/16 11:45:38;;;;;;;5.17;2.70;;;;;;;15.87;26.23;102284.05;1710965;83;21800;-69
2021/11/16 11:48:21;;;;;;;5.92;2.60;;;;;;;15.76;26.32;102285.23;1712720;83;21362;-68
2021/11/16 11:50:54;;;;;;;4.80;2.80;;;;;;;15.71;26.39;102283.09;1708243;83;21050;-72
2021/11/16 11:53:25;;;;;;;5.53;2.95;;;;;;;15.73;26.43;102284.26;1712071;83;21124;-73
2021/11/16 11:55:56;;;;;;;7.67;3.83;;;;;;;15.67;26.52;102279.66;1712924;83;21554;-70
2021/11/16 11:58:24;;;;;;;6.35;3.40;;;;;;;15.48;26.42;102276.36;1709672;83;21139;-70
2021/11/16 12:00:55;;;;;;;4.70;2.95;;;;;;;15.24;26.57;102271.94;1713085;83;22351;-69
2021/11/16 12:03:22;;;;;;;5.75;3.60;;;;;;;14.94;26.76;102264.20;1715591;81;21018;-69